createdAt,value
2019-05-20T00:07:06.123Z,100.00
2019-05-20T00:17:06.067Z,100.00
2019-05-20T00:27:06.022Z,100.00
2019-05-20T00:37:06.127Z,100.00
2019-05-20T00:47:06.093Z,100.00
2019-05-20T00:57:06.094Z,100.00
2019-05-20T01:07:06.106Z,100.00
2019-05-20T01:17:09.544Z,100.00
2019-05-20T01:27:06.092Z,100.00
2019-05-20T01:37:06.093Z,100.00
2019-05-20T01:47:06.054Z,100.00
2019-05-20T01:57:06.118Z,100.00
2019-05-20T02:07:06.204Z,100.00
2019-05-20T02:17:06.039Z,100.00
2019-05-20T02:27:06.103Z,100.00
2019-05-20T02:37:06.104Z,100.00
2019-05-20T02:47:06.068Z,100.00
2019-05-20T02:57:06.114Z,100.00
2019-05-20T03:07:06.188Z,100.00
2019-05-20T03:17:06.057Z,100.00
2019-05-20T03:27:06.109Z,100.00
2019-05-20T03:37:06.083Z,100.00
2019-05-20T03:47:06.080Z,100.00
2019-05-20T03:57:06.123Z,100.00
2019-05-20T04:07:06.090Z,100.00
2019-05-20T04:17:06.053Z,100.00
2019-05-20T04:27:06.124Z,100.00
2019-05-20T04:37:07.011Z,100.00
2019-05-20T04:47:06.117Z,100.00
2019-05-20T04:57:06.059Z,100.00
2019-05-20T05:07:06.159Z,100.00
2019-05-20T05:17:07.010Z,100.00
2019-05-20T05:27:06.052Z,100.00
2019-05-20T05:47:13.466Z,100.00
2019-05-20T05:57:13.430Z,100.00
2019-05-20T06:07:13.438Z,100.00
2019-05-20T06:31:55.874Z,97.53
2019-05-20T06:41:56.064Z,97.89
2019-05-20T06:51:56.011Z,97.43
2019-05-20T07:01:56.108Z,95.63
2019-05-20T07:11:57.706Z,93.92
2019-05-20T07:21:56.036Z,93.43
2019-05-20T07:31:56.123Z,92.65
2019-05-20T07:41:56.079Z,92.11
2019-05-20T07:51:56.054Z,91.84
2019-05-20T08:01:57.038Z,91.36
2019-05-20T08:11:56.115Z,91.32
2019-05-20T08:21:56.046Z,88.74
2019-05-20T16:48:25.801Z,91.12
2019-05-20T16:58:25.915Z,91.51
2019-05-20T17:08:25.864Z,91.30
2019-05-20T17:18:25.843Z,92.24
2019-05-20T17:28:25.803Z,92.44
2019-05-20T17:38:25.898Z,92.07
2019-05-20T17:48:25.829Z,93.16
2019-05-20T17:58:26.754Z,94.87
2019-05-20T18:08:25.871Z,95.05
2019-05-20T18:18:25.889Z,95.90
2019-05-20T18:28:25.831Z,95.32
2019-05-20T18:38:25.995Z,95.45
2019-05-20T18:48:25.857Z,95.98
2019-05-20T18:58:25.994Z,95.56
2019-05-20T19:08:25.898Z,96.52
2019-05-20T19:18:27.795Z,96.49
2019-05-20T19:28:27.890Z,97.05
2019-05-20T19:38:25.885Z,98.30
2019-05-20T19:48:25.877Z,99.19
2019-05-20T19:58:25.832Z,99.23
2019-05-20T20:08:25.917Z,100.00
2019-05-20T20:18:25.879Z,100.00
2019-05-20T20:28:25.942Z,100.00
2019-05-20T20:38:25.893Z,100.00
2019-05-20T20:48:25.926Z,100.00
2019-05-20T20:58:25.937Z,100.00
2019-05-20T21:08:26.518Z,100.00
